createdAt,value
2018-09-03T00:00:31.234Z,99.90
2018-09-03T00:02:59.550Z,99.90
2018-09-03T00:05:27.829Z,99.90
2018-09-03T00:07:56.080Z,99.90
2018-09-03T00:10:24.401Z,99.90
2018-09-03T00:12:52.621Z,99.90
2018-09-03T00:15:20.900Z,99.90
2018-09-03T00:17:49.176Z,99.90
2018-09-03T00:20:17.501Z,99.90
2018-09-03T00:22:45.778Z,99.90
2018-09-03T00:25:14.086Z,99.90
2018-09-03T00:27:42.348Z,99.90
2018-09-03T00:30:10.696Z,99.90
2018-09-03T00:32:44.349Z,99.90
2018-09-03T00:35:17.919Z,99.90
2018-09-03T00:37:51.445Z,99.90
2018-09-03T00:40:25.144Z,99.90
2018-09-03T00:42:58.682Z,99.90
2018-09-03T00:45:32.324Z,99.90
2018-09-03T00:48:00.595Z,99.90
2018-09-03T00:50:28.866Z,99.90
2018-09-03T00:52:57.149Z,99.90
2018-09-03T00:55:25.434Z,99.90
2018-09-03T00:57:53.712Z,99.90
2018-09-03T01:00:21.976Z,99.90
2018-09-03T01:02:50.265Z,99.90
2018-09-03T01:05:18.560Z,99.90
2018-09-03T01:07:46.840Z,99.90
2018-09-03T01:10:15.124Z,99.90
2018-09-03T01:12:43.468Z,99.90
2018-09-03T01:15:11.738Z,99.90
2018-09-03T01:17:39.997Z,99.90
2018-09-03T01:20:08.264Z,99.90
2018-09-03T01:22:36.555Z,99.90
2018-09-03T01:25:04.862Z,99.90
2018-09-03T01:27:33.149Z,99.90
2018-09-03T01:30:01.429Z,99.90
2018-09-03T01:32:29.702Z,99.90
2018-09-03T01:34:58.004Z,99.90
2018-09-03T01:37:26.314Z,99.90
2018-09-03T01:39:54.579Z,99.90
2018-09-03T01:42:22.840Z,99.90
2018-09-03T01:44:51.112Z,99.90
2018-09-03T01:47:19.420Z,99.90
2018-09-03T01:49:47.718Z,99.90
2018-09-03T01:52:15.992Z,99.90
2018-09-03T01:54:44.258Z,99.90
2018-09-03T01:57:12.524Z,99.90
2018-09-03T01:59:40.797Z,99.90
2018-09-03T02:02:09.072Z,99.90
2018-09-03T02:04:37.356Z,99.90
2018-09-03T02:07:05.645Z,99.90
2018-09-03T02:09:33.982Z,99.90
2018-09-03T02:12:02.296Z,99.90
2018-09-03T02:14:30.564Z,99.90
2018-09-03T02:16:58.865Z,99.90
2018-09-03T02:19:27.149Z,99.90
2018-09-03T02:21:55.420Z,99.90
2018-09-03T02:24:23.696Z,99.90
2018-09-03T02:26:52.003Z,99.90
2018-09-03T02:29:20.286Z,99.90
2018-09-03T02:31:48.574Z,99.90
2018-09-03T02:34:16.850Z,99.90
2018-09-03T02:36:45.164Z,99.90
2018-09-03T02:39:13.468Z,99.90
2018-09-03T02:41:41.765Z,99.90
2018-09-03T02:44:10.045Z,99.90
2018-09-03T02:46:38.314Z,99.90
2018-09-03T02:49:06.980Z,99.90
2018-09-03T02:51:35.261Z,99.90
2018-09-03T02:54:03.564Z,99.90
2018-09-03T02:56:31.869Z,99.90
2018-09-03T02:59:00.162Z,99.90
2018-09-03T03:01:28.425Z,99.90
2018-09-03T03:03:56.733Z,99.90
2018-09-03T03:06:25.009Z,99.90
2018-09-03T03:08:53.329Z,99.90
2018-09-03T03:11:21.590Z,99.90
2018-09-03T03:13:49.876Z,99.90
2018-09-03T03:16:18.157Z,99.90
2018-09-03T03:18:46.433Z,99.90
2018-09-03T03:21:14.707Z,99.90
2018-09-03T03:23:42.975Z,99.90
2018-09-03T03:26:11.255Z,99.90
2018-09-03T03:28:39.532Z,99.90
2018-09-03T03:31:07.827Z,99.90
2018-09-03T03:33:36.104Z,99.90
2018-09-03T03:36:04.405Z,99.90
2018-09-03T03:38:32.669Z,99.90
2018-09-03T03:41:00.936Z,99.90
2018-09-03T03:43:29.245Z,99.90
2018-09-03T03:45:58.400Z,99.90
2018-09-03T03:48:26.749Z,99.90
2018-09-03T03:50:54.996Z,99.90
2018-09-03T03:53:23.264Z,99.90
2018-09-03T03:55:51.540Z,99.90
2018-09-03T03:58:19.809Z,99.90
2018-09-03T04:00:48.096Z,99.90
2018-09-03T04:03:16.371Z,99.90
2018-09-03T04:05:44.781Z,99.90
2018-09-03T04:08:13.052Z,99.90
2018-09-03T04:10:41.308Z,99.90
2018-09-03T04:13:09.572Z,99.90
2018-09-03T04:15:37.859Z,99.90
2018-09-03T04:18:06.124Z,99.90
2018-09-03T04:20:34.397Z,99.90
2018-09-03T04:23:02.758Z,99.90
2018-09-03T04:25:30.991Z,99.90
2018-09-03T04:27:59.334Z,99.90
2018-09-03T04:30:27.648Z,99.90
2018-09-03T04:32:55.935Z,99.90
2018-09-03T04:35:24.233Z,99.90
2018-09-03T04:37:52.784Z,99.90
2018-09-03T04:40:21.154Z,99.90
2018-09-03T04:42:49.413Z,99.90
2018-09-03T04:45:17.690Z,99.90
2018-09-03T04:47:45.992Z,99.90
2018-09-03T04:50:14.302Z,99.90
2018-09-03T04:52:42.562Z,99.90
2018-09-03T04:55:10.852Z,99.90
2018-09-03T04:57:39.175Z,99.90
2018-09-03T05:00:07.729Z,99.90
2018-09-03T05:02:36.019Z,99.90
2018-09-03T05:05:04.401Z,99.90
2018-09-03T05:07:32.633Z,99.90
2018-09-03T05:10:00.908Z,99.90
2018-09-03T05:12:29.188Z,99.90
2018-09-03T05:14:57.512Z,99.90
2018-09-03T05:17:25.763Z,99.90
2018-09-03T05:19:54.045Z,99.90
2018-09-03T05:22:22.320Z,99.90
2018-09-03T05:24:50.595Z,99.90
2018-09-03T05:27:18.924Z,99.90
2018-09-03T05:29:47.238Z,99.90
2018-09-03T05:32:15.602Z,99.90
2018-09-03T05:34:44.002Z,99.90
2018-09-03T05:37:12.329Z,99.90
2018-09-03T05:39:40.592Z,99.90
2018-09-03T05:42:08.968Z,99.90
2018-09-03T05:44:37.252Z,99.90
2018-09-03T05:47:06.238Z,99.90
2018-09-03T05:49:34.592Z,99.90
2018-09-03T05:52:02.880Z,99.90
2018-09-03T05:54:31.231Z,99.90
2018-09-03T05:56:59.507Z,99.90
2018-09-03T05:59:27.784Z,99.90
2018-09-03T06:01:56.479Z,99.90
2018-09-03T06:04:24.796Z,99.90
2018-09-03T06:06:53.126Z,99.90
2018-09-03T06:09:21.394Z,99.90
2018-09-03T06:11:49.673Z,99.90
2018-09-03T06:14:17.957Z,99.90
2018-09-03T06:16:46.225Z,99.90
2018-09-03T06:19:14.501Z,99.90
2018-09-03T06:21:42.789Z,99.90
2018-09-03T06:24:11.145Z,99.90
2018-09-03T06:26:39.449Z,99.90
2018-09-03T06:29:07.768Z,99.90
2018-09-03T06:31:36.058Z,99.90
2018-09-03T06:34:04.344Z,99.90
2018-09-03T06:36:32.616Z,99.90
2018-09-03T06:39:00.956Z,99.90
2018-09-03T06:41:29.238Z,99.90
2018-09-03T06:43:57.509Z,99.90
2018-09-03T06:46:25.760Z,99.90
2018-09-03T06:48:54.030Z,99.90
2018-09-03T06:51:22.308Z,99.90
2018-09-03T06:53:50.625Z,99.90
2018-09-03T06:56:18.902Z,99.90
2018-09-03T06:58:47.245Z,99.90
2018-09-03T07:01:15.578Z,99.90
2018-09-03T07:03:44.221Z,99.90
2018-09-03T07:06:12.519Z,99.90
2018-09-03T07:08:40.990Z,99.90
2018-09-03T07:11:09.979Z,99.90
2018-09-03T07:13:38.240Z,99.90
2018-09-03T07:16:06.592Z,99.90
2018-09-03T07:18:34.864Z,99.90
2018-09-03T07:21:03.148Z,99.90
2018-09-03T07:23:31.420Z,99.90
2018-09-03T07:25:59.719Z,99.90
2018-09-03T07:28:28.020Z,99.90
2018-09-03T07:30:56.490Z,99.90
2018-09-03T07:33:24.764Z,99.90
2018-09-03T07:35:53.034Z,99.90
2018-09-03T07:38:21.312Z,99.90
2018-09-03T07:40:49.569Z,99.90
2018-09-03T07:43:17.880Z,99.90
2018-09-03T07:45:46.155Z,99.90
2018-09-03T07:48:14.434Z,99.90
2018-09-03T07:50:42.689Z,99.90
2018-09-03T07:53:10.999Z,99.90
2018-09-03T07:55:39.265Z,99.90
2018-09-03T07:58:07.992Z,99.90
2018-09-03T08:00:36.253Z,99.90
2018-09-03T08:03:04.530Z,99.90
2018-09-03T08:05:32.808Z,99.90
2018-09-03T08:08:01.068Z,99.90
2018-09-03T08:10:29.356Z,99.90
2018-09-03T08:12:57.695Z,99.90
2018-09-03T08:15:25.929Z,99.90
2018-09-03T08:17:54.204Z,99.90
2018-09-03T08:20:22.521Z,99.90
2018-09-03T08:22:50.798Z,99.90
2018-09-03T08:25:19.132Z,99.90
2018-09-03T08:27:47.397Z,99.90
2018-09-03T08:30:15.683Z,99.90
2018-09-03T08:32:43.957Z,99.90
2018-09-03T08:35:12.394Z,99.90
2018-09-03T08:37:40.677Z,99.90
2018-09-03T08:40:08.963Z,99.90
2018-09-03T08:42:37.233Z,99.90
2018-09-03T08:45:05.643Z,99.60
2018-09-03T08:47:33.975Z,99.60
2018-09-03T08:50:02.252Z,99.20
2018-09-03T08:52:30.537Z,98.40
2018-09-03T08:54:58.808Z,98.80
2018-09-03T08:57:27.105Z,98.70
2018-09-03T08:59:55.388Z,98.30
2018-09-03T09:02:23.673Z,96.80
2018-09-03T09:04:51.947Z,97.40
2018-09-03T09:07:20.237Z,97.80
2018-09-03T09:09:48.541Z,98.10
2018-09-03T09:12:16.851Z,96.20
2018-09-03T09:14:45.109Z,96.30
2018-09-03T09:17:13.405Z,97.20
2018-09-03T09:19:41.664Z,97.20
2018-09-03T09:22:09.940Z,97.30
2018-09-03T09:24:38.218Z,97.70
2018-09-03T09:27:06.508Z,97.80
2018-09-03T09:29:34.792Z,98.00
2018-09-03T09:32:03.092Z,98.20
2018-09-03T09:34:31.390Z,97.90
2018-09-03T09:36:59.819Z,98.20
2018-09-03T09:39:28.097Z,99.00
2018-09-03T09:41:56.385Z,97.60
2018-09-03T09:44:24.648Z,97.70
2018-09-03T09:46:52.940Z,98.10
2018-09-03T09:49:21.384Z,98.10
2018-09-03T09:51:49.652Z,97.60
2018-09-03T09:54:17.908Z,96.30
2018-09-03T09:56:46.199Z,97.80
2018-09-03T09:59:14.480Z,97.60
2018-09-03T10:01:42.745Z,96.90
2018-09-03T10:04:11.112Z,95.80
2018-09-03T10:06:39.374Z,95.90
2018-09-03T10:09:08.221Z,95.60
2018-09-03T10:11:36.473Z,95.40
2018-09-03T10:14:04.768Z,95.90
2018-09-03T10:16:33.044Z,95.40
2018-09-03T10:19:01.294Z,96.30
2018-09-03T10:21:29.556Z,95.80
2018-09-03T10:23:57.841Z,94.70
2018-09-03T10:26:26.129Z,94.50
2018-09-03T10:28:54.457Z,94.50
2018-09-03T10:31:22.704Z,94.50
2018-09-03T10:33:50.968Z,94.50
2018-09-03T10:36:19.268Z,94.80
2018-09-03T10:38:47.573Z,95.00
2018-09-03T10:41:15.831Z,94.40
2018-09-03T10:43:44.133Z,93.80
2018-09-03T10:46:12.479Z,94.20
2018-09-03T10:48:40.788Z,94.30
2018-09-03T10:51:09.053Z,95.30
2018-09-03T10:53:37.334Z,94.50
2018-09-03T10:56:05.827Z,94.70
2018-09-03T10:58:34.106Z,93.10
2018-09-03T11:01:02.365Z,93.20
2018-09-03T11:03:30.634Z,94.40
2018-09-03T11:05:58.901Z,94.20
2018-09-03T11:08:27.168Z,93.40
2018-09-03T11:10:55.439Z,93.20
2018-09-03T11:13:23.710Z,92.60
2018-09-03T11:15:51.989Z,92.10
2018-09-03T11:18:20.273Z,92.20
2018-09-03T11:20:48.561Z,92.20
2018-09-03T11:23:16.898Z,93.10
2018-09-03T11:25:45.204Z,92.30
2018-09-03T11:28:13.492Z,93.10
2018-09-03T11:30:41.786Z,93.00
2018-09-03T11:33:10.073Z,93.30
2018-09-03T11:35:38.349Z,93.80
2018-09-03T11:38:06.644Z,92.60
2018-09-03T11:40:34.920Z,92.10
2018-09-03T11:43:03.201Z,91.90
2018-09-03T11:45:31.471Z,91.50
2018-09-03T11:47:59.746Z,91.70
2018-09-03T11:50:28.018Z,93.20
2018-09-03T11:52:56.280Z,94.20
2018-09-03T11:55:24.568Z,92.60
2018-09-03T11:57:52.867Z,92.80
2018-09-03T12:00:24.502Z,93.70
2018-09-03T12:02:52.724Z,92.30
2018-09-03T12:05:20.983Z,91.50
2018-09-03T12:07:49.321Z,92.30
2018-09-03T12:10:17.580Z,93.20
2018-09-03T12:12:45.872Z,90.30
2018-09-03T12:15:19.333Z,91.10
2018-09-03T12:17:47.621Z,91.00
2018-09-03T12:20:15.882Z,91.10
2018-09-03T12:22:44.165Z,91.00
2018-09-03T12:25:12.437Z,91.60
2018-09-03T12:27:40.746Z,91.00
2018-09-03T12:30:09.005Z,92.40
2018-09-03T12:32:37.484Z,92.40
2018-09-03T12:35:06.041Z,93.40
2018-09-03T12:37:34.313Z,92.70
2018-09-03T12:40:02.610Z,93.60
2018-09-03T12:42:31.148Z,93.40
2018-09-03T12:44:59.425Z,93.70
2018-09-03T12:47:27.689Z,93.40
2018-09-03T12:49:55.982Z,94.30
2018-09-03T12:52:24.349Z,94.30
2018-09-03T12:54:52.627Z,93.40
2018-09-03T12:57:21.277Z,94.60
2018-09-03T12:59:49.550Z,94.80
2018-09-03T13:02:17.816Z,94.60
2018-09-03T13:04:46.081Z,92.80
2018-09-03T13:07:14.352Z,92.70
2018-09-03T13:09:42.633Z,93.60
2018-09-03T13:12:10.893Z,94.10
2018-09-03T13:14:39.162Z,92.80
2018-09-03T13:17:07.420Z,92.30
2018-09-03T13:19:35.718Z,93.10
2018-09-03T13:22:04.020Z,93.20
2018-09-03T13:24:32.293Z,92.30
2018-09-03T13:27:00.821Z,91.90
2018-09-03T13:29:29.078Z,92.20
2018-09-03T13:31:57.336Z,91.80
2018-09-03T13:34:32.644Z,90.60
2018-09-03T13:37:00.928Z,90.40
2018-09-03T13:39:29.188Z,90.10
2018-09-03T13:41:57.481Z,91.40
2018-09-03T13:44:25.729Z,91.60
2018-09-03T13:46:54.000Z,89.70
2018-09-03T13:49:22.267Z,88.00
2018-09-03T13:51:50.543Z,88.70
2018-09-03T13:54:18.805Z,89.40
2018-09-03T13:56:47.081Z,85.90
2018-09-03T13:59:15.347Z,89.30
2018-09-03T14:01:43.629Z,90.10
2018-09-03T14:04:11.900Z,84.10
2018-09-03T14:06:40.153Z,83.90
2018-09-03T14:09:08.784Z,89.40
2018-09-03T14:11:37.138Z,88.20
2018-09-03T14:14:05.409Z,87.40
2018-09-03T14:16:33.850Z,82.20
2018-09-03T14:19:02.201Z,81.00
2018-09-03T14:21:30.493Z,83.80
2018-09-03T14:23:58.777Z,84.00
2018-09-03T14:26:27.165Z,84.30
2018-09-03T14:28:55.456Z,84.40
2018-09-03T14:31:23.909Z,83.90
2018-09-03T14:33:52.328Z,83.80
2018-09-03T14:36:20.597Z,85.10
2018-09-03T14:38:48.884Z,83.40
2018-09-03T14:41:17.171Z,84.20
2018-09-03T14:43:45.767Z,84.30
2018-09-03T14:46:14.073Z,83.40
2018-09-03T14:48:42.357Z,84.80
2018-09-03T14:51:10.639Z,86.40
2018-09-03T14:53:39.045Z,86.10
2018-09-03T14:56:07.374Z,85.70
2018-09-03T14:58:35.574Z,81.50
2018-09-03T15:01:03.856Z,83.80
2018-09-03T15:03:32.483Z,82.90
2018-09-03T15:06:00.753Z,87.20
2018-09-03T15:08:29.101Z,84.30
2018-09-03T15:10:57.297Z,84.40
2018-09-03T15:13:25.552Z,85.30
2018-09-03T15:15:53.835Z,87.20
2018-09-03T15:18:22.101Z,83.70
2018-09-03T15:20:50.376Z,85.10
2018-09-03T15:23:18.647Z,90.30
2018-09-03T15:25:46.913Z,90.10
2018-09-03T15:28:15.185Z,85.20
2018-09-03T15:30:43.460Z,85.40
2018-09-03T15:33:11.724Z,87.50
2018-09-03T15:35:39.987Z,87.10
2018-09-03T15:38:08.243Z,86.80
2018-09-03T15:40:36.508Z,88.20
2018-09-03T15:43:04.826Z,87.90
2018-09-03T15:45:33.064Z,88.60
2018-09-03T15:48:01.372Z,88.70
2018-09-03T15:50:29.698Z,89.80
2018-09-03T15:52:57.972Z,90.10
2018-09-03T15:55:26.236Z,89.70
2018-09-03T15:57:54.521Z,90.60
2018-09-03T16:00:22.783Z,90.60
2018-09-03T16:02:51.072Z,91.00
2018-09-03T16:05:19.367Z,91.00
2018-09-03T16:07:47.629Z,91.90
2018-09-03T16:10:15.912Z,92.20
2018-09-03T16:12:44.196Z,92.30
2018-09-03T16:15:12.586Z,92.80
2018-09-03T16:17:40.845Z,93.30
2018-09-03T16:20:09.133Z,92.70
2018-09-03T16:22:37.399Z,93.10
2018-09-03T16:25:05.990Z,93.50
2018-09-03T16:27:34.353Z,92.70
2018-09-03T16:30:02.556Z,92.60
2018-09-03T16:32:30.825Z,92.30
2018-09-03T16:34:59.129Z,92.00
2018-09-03T16:37:27.401Z,92.30
2018-09-03T16:39:55.668Z,92.70
2018-09-03T16:42:23.965Z,92.60
2018-09-03T16:44:52.240Z,93.10
2018-09-03T16:47:20.522Z,93.00
2018-09-03T16:49:48.798Z,93.50
2018-09-03T16:52:17.068Z,93.70
2018-09-03T16:54:45.339Z,93.40
2018-09-03T16:57:13.606Z,94.00
2018-09-03T16:59:41.885Z,93.90
2018-09-03T17:02:10.171Z,94.00
2018-09-03T17:04:38.456Z,94.20
2018-09-03T17:07:06.958Z,94.50
2018-09-03T17:09:35.525Z,94.90
2018-09-03T17:12:03.788Z,94.90
2018-09-03T17:14:32.223Z,95.20
2018-09-03T17:17:00.486Z,95.20
2018-09-03T17:19:28.756Z,95.60
2018-09-03T17:21:57.028Z,95.60
2018-09-03T17:24:25.312Z,95.80
2018-09-03T17:26:53.596Z,96.00
2018-09-03T17:29:21.890Z,95.80
2018-09-03T17:31:50.175Z,95.90
2018-09-03T17:34:18.450Z,96.90
2018-09-03T17:36:46.713Z,97.50
2018-09-03T17:39:14.987Z,97.00
2018-09-03T17:41:43.255Z,96.70
2018-09-03T17:44:11.525Z,97.10
2018-09-03T17:46:39.805Z,97.50
2018-09-03T17:49:08.089Z,97.70
2018-09-03T17:51:36.345Z,97.60
2018-09-03T17:54:04.622Z,97.70
2018-09-03T17:56:32.902Z,97.80
2018-09-03T17:59:01.224Z,98.40
2018-09-03T18:01:29.535Z,98.40
2018-09-03T18:03:57.860Z,98.10
2018-09-03T18:06:26.144Z,98.20
2018-09-03T18:08:54.396Z,98.70
2018-09-03T18:11:22.673Z,98.70
2018-09-03T18:13:50.952Z,98.60
2018-09-03T18:16:19.365Z,98.60
2018-09-03T18:18:47.624Z,98.70
2018-09-03T18:21:15.888Z,98.70
2018-09-03T18:23:44.153Z,98.70
2018-09-03T18:26:12.416Z,99.10
2018-09-03T18:28:40.684Z,98.90
2018-09-03T18:31:08.945Z,99.20
2018-09-03T18:33:37.225Z,99.30
2018-09-03T18:36:05.758Z,99.10
2018-09-03T18:38:33.958Z,99.20
2018-09-03T18:41:02.217Z,99.20
2018-09-03T18:43:30.564Z,99.10
2018-09-03T18:45:58.836Z,99.90
2018-09-03T18:48:27.131Z,99.70
2018-09-03T18:50:55.414Z,99.90
2018-09-03T18:53:23.738Z,99.70
2018-09-03T18:55:51.956Z,99.40
2018-09-03T18:58:20.237Z,99.10
2018-09-03T19:00:48.521Z,99.90
2018-09-03T19:03:16.788Z,99.90
2018-09-03T19:05:45.070Z,99.90
2018-09-03T19:08:13.336Z,99.90
2018-09-03T19:10:41.618Z,99.90
2018-09-03T19:13:09.888Z,99.90
2018-09-03T19:15:38.152Z,99.90
2018-09-03T19:18:06.424Z,99.90
2018-09-03T19:20:34.689Z,99.90
2018-09-03T19:23:02.969Z,99.90
2018-09-03T19:25:31.253Z,99.90
2018-09-03T19:27:59.541Z,99.90
2018-09-03T19:30:27.841Z,99.90
2018-09-03T19:32:56.113Z,99.90
2018-09-03T19:35:24.388Z,99.90
2018-09-03T19:37:52.681Z,99.90
2018-09-03T19:40:21.045Z,99.90
2018-09-03T19:42:49.320Z,99.90
2018-09-03T19:45:17.634Z,99.90
2018-09-03T19:47:45.904Z,99.90
2018-09-03T19:50:14.184Z,99.90
2018-09-03T19:52:42.456Z,99.90
2018-09-03T19:55:10.739Z,99.90
2018-09-03T19:57:39.001Z,99.90
2018-09-03T20:00:07.371Z,99.90
2018-09-03T20:02:35.632Z,99.90
2018-09-03T20:05:03.904Z,99.90
2018-09-03T20:07:32.214Z,99.90
2018-09-03T20:10:00.487Z,99.90
2018-09-03T20:12:28.802Z,99.90
2018-09-03T20:14:57.113Z,99.90
2018-09-03T20:17:25.408Z,99.90
2018-09-03T20:19:53.971Z,99.90
2018-09-03T20:22:22.237Z,99.90
2018-09-03T20:24:50.500Z,99.90
2018-09-03T20:27:18.788Z,99.90
2018-09-03T20:29:47.090Z,99.90
2018-09-03T20:32:15.381Z,99.90
2018-09-03T20:34:43.696Z,99.90
2018-09-03T20:37:11.967Z,99.90
2018-09-03T20:39:40.251Z,99.90
2018-09-03T20:42:08.874Z,99.90
2018-09-03T20:44:37.193Z,99.90
2018-09-03T20:47:05.505Z,99.90
2018-09-03T20:49:33.794Z,99.90
2018-09-03T20:52:02.077Z,99.90
2018-09-03T20:54:30.397Z,99.90
2018-09-03T20:56:58.668Z,99.90
2018-09-03T20:59:26.983Z,99.90
2018-09-03T21:01:55.226Z,99.90
2018-09-03T21:04:23.498Z,99.90
2018-09-03T21:06:51.794Z,99.90
2018-09-03T21:09:20.086Z,99.90
2018-09-03T21:11:48.368Z,99.90
2018-09-03T21:14:16.652Z,99.90
2018-09-03T21:16:44.921Z,99.90
2018-09-03T21:19:13.199Z,99.90
2018-09-03T21:21:41.511Z,99.90
2018-09-03T21:24:09.795Z,99.90
2018-09-03T21:26:38.084Z,99.90
2018-09-03T21:29:06.387Z,99.90
2018-09-03T21:31:34.662Z,99.90
2018-09-03T21:34:02.948Z,99.90
2018-09-03T21:36:31.225Z,99.90
2018-09-03T21:38:59.540Z,99.90
2018-09-03T21:41:27.834Z,99.90
2018-09-03T21:43:56.112Z,99.90
2018-09-03T21:46:24.393Z,99.90
2018-09-03T21:48:52.673Z,99.90
2018-09-03T21:51:20.997Z,99.90
2018-09-03T21:53:49.277Z,99.90
2018-09-03T21:56:17.545Z,99.90
2018-09-03T21:58:45.830Z,99.90
2018-09-03T22:01:14.125Z,99.90
2018-09-03T22:03:42.406Z,99.90
2018-09-03T22:06:10.713Z,99.90
2018-09-03T22:08:39.058Z,99.90
2018-09-03T22:11:07.286Z,99.90
2018-09-03T22:13:35.564Z,99.90
2018-09-03T22:16:03.892Z,99.90
2018-09-03T22:18:32.583Z,99.90
2018-09-03T22:21:00.876Z,99.90
2018-09-03T22:23:29.148Z,99.90
2018-09-03T22:25:57.443Z,99.90
2018-09-03T22:28:25.739Z,99.90
2018-09-03T22:30:53.997Z,99.90
2018-09-03T22:33:22.273Z,99.90
2018-09-03T22:35:50.584Z,99.90
2018-09-03T22:38:18.871Z,99.90
2018-09-03T22:40:47.157Z,99.90
2018-09-03T22:43:15.432Z,99.90
2018-09-03T22:45:43.752Z,99.90
2018-09-03T22:48:12.030Z,99.90
2018-09-03T22:50:40.324Z,99.90
2018-09-03T22:53:08.626Z,99.90
2018-09-03T22:55:36.897Z,99.90
2018-09-03T22:58:05.196Z,99.90
2018-09-03T23:00:33.476Z,99.90
2018-09-03T23:03:01.744Z,99.90
2018-09-03T23:05:30.033Z,99.90
2018-09-03T23:07:58.296Z,99.90
2018-09-03T23:10:26.573Z,99.90
2018-09-03T23:12:56.260Z,99.90
2018-09-03T23:15:24.553Z,99.90
2018-09-03T23:17:52.824Z,99.90
2018-09-03T23:20:21.096Z,99.90
2018-09-03T23:22:49.384Z,99.90
2018-09-03T23:25:17.661Z,99.90
2018-09-03T23:27:45.957Z,99.90
2018-09-03T23:30:14.261Z,99.90
2018-09-03T23:32:42.525Z,99.90
2018-09-03T23:35:10.797Z,99.90
2018-09-03T23:37:39.069Z,99.90
2018-09-03T23:40:07.365Z,99.90
2018-09-03T23:42:35.644Z,99.90
2018-09-03T23:45:03.936Z,99.90
2018-09-03T23:47:32.213Z,99.90
2018-09-03T23:50:00.501Z,99.90
2018-09-03T23:52:28.760Z,99.90
2018-09-03T23:54:57.044Z,99.90
2018-09-03T23:57:25.335Z,99.90
2018-09-03T23:59:53.600Z,99.90
